Time;durP1;ratioP1;P1;durP2;ratioP2;P2;SDS_P1;SDS_P2;PMS_P1;PMS_P2;Temp;Humidity;BMP_temperature;BMP_pressure;BME280_temperature;BME280_humidity;BME280_pressure;Samples;Min_cycle;Max_cycle;Signal;HPM_P1;HPM_P2
2022/07/15 00:01:11;;;;;;;;;;;;;;;19.79;53.22;100869.78;1675120;84;25788;-59
2022/07/15 00:03:37;;;;;;;;;;;;;;;19.72;53.34;100871.10;1676151;83;27493;-59
2022/07/15 00:06:04;;;;;;;;;;;;;;;19.67;53.71;100871.69;1697857;82;25718;-59
2022/07/15 00:08:31;;;;;;;;;;;;;;;19.63;53.79;100865.45;1699457;83;25873;-59
2022/07/15 00:10:57;;;;;;;;;;;;;;;19.58;53.75;100857.84;1697589;82;27000;-60
2022/07/15 00:13:24;;;;;;;;;;;;;;;19.55;53.77;100858.22;1696677;83;25959;-59
2022/07/15 00:15:51;;;;;;;;;;;;;;;19.52;53.91;100859.95;1701021;83;27482;-60
2022/07/15 00:18:18;;;;;;;;;;;;;;;19.50;53.69;100855.20;1703977;82;25511;-59
2022/07/15 00:20:44;;;;;;;;;;;;;;;19.48;53.74;100848.59;1700452;83;26978;-59
2022/07/15 00:23:12;;;;;;;;;;;;;;;19.47;53.69;100852.88;1697572;83;26611;-58
2022/07/15 00:25:39;;;;;;;;;;;;;;;19.48;53.51;100854.05;1685031;83;25746;-59
2022/07/15 00:28:07;;;;;;;;;;;;;;;19.48;53.59;100851.84;1688203;83;27494;-59
2022/07/15 00:30:37;;;;;;;;;;;;;;;19.45;54.20;100858.55;1682422;82;25835;-59
2022/07/15 00:33:04;;;;;;;;;;;;;;;19.43;53.97;100857.02;1675264;84;25719;-59
2022/07/15 00:35:32;;;;;;;;;;;;;;;19.41;54.15;100861.84;1670067;84;26173;-58
2022/07/15 00:37:59;;;;;;;;;;;;;;;19.37;55.24;100860.00;1686259;84;25673;-59
2022/07/15 00:40:26;;;;;;;;;;;;;;;19.26;55.08;100858.62;1682469;84;28320;-59
2022/07/15 00:42:53;;;;;;;;;;;;;;;19.17;56.51;100853.81;1668307;84;25788;-59
2022/07/15 00:45:22;;;;;;;;;;;;;;;19.08;55.92;100857.16;1675179;84;25798;-59
2022/07/15 00:47:51;;;;;;;;;;;;;;;19.03;55.85;100856.89;1661944;83;26117;-59
2022/07/15 00:50:21;;;;;;;;;;;;;;;19.01;56.15;100854.00;1674953;83;25752;-59
2022/07/15 00:53:09;;;;;;;;;;;;;;;18.95;55.70;100851.55;1656392;84;28380;-58
2022/07/15 00:55:38;;;;;;;;;;;;;;;18.95;55.93;100854.27;1661288;84;25836;-58
2022/07/15 00:58:05;;;;;;;;;;;;;;;18.94;55.94;100843.03;1659955;84;25706;-58
2022/07/15 01:00:33;;;;;;;;;;;;;;;18.96;56.11;100845.56;1654298;84;26822;-59
2022/07/15 01:03:01;;;;;;;;;;;;;;;18.97;55.50;100841.27;1676724;83;25819;-59
2022/07/15 01:05:28;;;;;;;;;;;;;;;19.01;55.47;100835.78;1676355;84;27518;-59
2022/07/15 01:07:55;;;;;;;;;;;;;;;19.02;55.76;100837.98;1663481;84;25871;-59
2022/07/15 01:10:24;;;;;;;;;;;;;;;19.03;55.89;100831.49;1672837;83;25844;-58
2022/07/15 01:12:51;;;;;;;;;;;;;;;18.99;55.66;100830.20;1672141;84;25740;-59
2022/07/15 01:15:19;;;;;;;;;;;;;;;18.93;56.95;100820.36;1679119;84;25863;-58
2022/07/15 01:17:46;;;;;;;;;;;;;;;18.88;56.43;100820.07;1673657;84;28209;-58
2022/07/15 01:20:15;;;;;;;;;;;;;;;18.87;56.57;100827.92;1663448;84;25818;-59
2022/07/15 01:22:59;;;;;;;;;;;;;;;18.85;56.70;100823.17;1673524;84;25732;-58
2022/07/15 01:25:29;;;;;;;;;;;;;;;18.84;56.91;100823.36;1676887;83;26231;-58
2022/07/15 01:27:57;;;;;;;;;;;;;;;18.83;56.85;100821.14;1656118;84;25942;-58
2022/07/15 01:30:25;;;;;;;;;;;;;;;18.84;57.08;100813.30;1667643;84;27492;-58
2022/07/15 01:32:53;;;;;;;;;;;;;;;18.84;56.70;100809.73;1676011;84;25849;-58
2022/07/15 01:35:20;;;;;;;;;;;;;;;18.83;56.67;100811.60;1663533;84;25839;-58
2022/07/15 01:37:48;;;;;;;;;;;;;;;18.84;56.86;100811.93;1673173;84;26109;-59
2022/07/15 01:40:16;;;;;;;;;;;;;;;18.82;56.98;100809.08;1669338;84;25947;-58
2022/07/15 01:42:44;;;;;;;;;;;;;;;18.80;56.67;100813.37;1656601;84;27479;-59
2022/07/15 01:45:12;;;;;;;;;;;;;;;18.78;56.63;100812.70;1668894;84;25779;-58
2022/07/15 01:47:45;;;;;;;;;;;;;;;18.74;56.65;100808.15;1694515;83;26537;-59
2022/07/15 01:50:14;;;;;;;;;;;;;;;18.72;56.56;100806.13;1686111;83;26170;-59
2022/07/15 01:52:42;;;;;;;;;;;;;;;18.66;56.56;100806.89;1707350;82;26180;-59
2022/07/15 01:55:10;;;;;;;;;;;;;;;18.58;56.71;100803.73;1699642;83;27476;-59
2022/07/15 01:57:36;;;;;;;;;;;;;;;18.51;56.75;100808.78;1689154;83;25478;-59
2022/07/15 02:00:06;;;;;;;;;;;;;;;18.40;56.83;100806.85;1670026;83;25740;-59
2022/07/15 02:02:46;;;;;;;;;;;;;;;18.30;56.81;100804.91;1677876;82;27109;-59
2022/07/15 02:05:15;;;;;;;;;;;;;;;18.24;57.08;100805.14;1702015;83;26044;-59
2022/07/15 02:07:42;;;;;;;;;;;;;;;18.22;57.20;100801.75;1696782;83;27638;-59
2022/07/15 02:10:11;;;;;;;;;;;;;;;18.22;57.54;100800.92;1710092;82;27283;-59
2022/07/15 02:12:39;;;;;;;;;;;;;;;18.23;57.47;100797.17;1707582;83;25801;-59
2022/07/15 02:15:07;;;;;;;;;;;;;;;18.23;57.50;100798.53;1705890;83;27017;-59
2022/07/15 02:17:36;;;;;;;;;;;;;;;18.23;57.53;100794.44;1694617;83;25745;-59
2022/07/15 02:20:04;;;;;;;;;;;;;;;18.24;57.34;100791.52;1715890;83;27520;-59
2022/07/15 02:22:31;;;;;;;;;;;;;;;18.25;57.41;100793.22;1713570;83;25976;-59
2022/07/15 02:24:59;;;;;;;;;;;;;;;18.27;57.38;100803.91;1708653;83;25702;-59
2022/07/15 02:27:26;;;;;;;;;;;;;;;18.25;57.49;100800.52;1704572;82;26475;-59
2022/07/15 02:29:52;;;;;;;;;;;;;;;18.25;57.75;100798.66;1665024;84;25779;-59
2022/07/15 02:32:20;;;;;;;;;;;;;;;18.23;57.89;100795.27;1668638;84;27489;-60
2022/07/15 02:34:47;;;;;;;;;;;;;;;18.23;58.05;100793.08;1671684;84;25517;-58
2022/07/15 02:37:13;;;;;;;;;;;;;;;18.22;57.83;100795.47;1669796;85;25867;-59
2022/07/15 02:39:42;;;;;;;;;;;;;;;18.22;57.69;100790.02;1680323;84;26274;-58
2022/07/15 02:42:08;;;;;;;;;;;;;;;18.18;57.88;100787.33;1668960;84;25613;-59
2022/07/15 02:44:36;;;;;;;;;;;;;;;18.11;58.24;100784.00;1668096;84;27592;-59
2022/07/15 02:47:03;;;;;;;;;;;;;;;18.09;58.00;100790.14;1696371;83;25885;-58
2022/07/15 02:49:32;;;;;;;;;;;;;;;18.06;58.41;100786.95;1700411;83;25775;-59
2022/07/15 02:52:01;;;;;;;;;;;;;;;18.01;58.40;100790.22;1684197;83;26298;-60
2022/07/15 02:54:29;;;;;;;;;;;;;;;18.00;58.56;100784.45;1706313;83;25812;-59
2022/07/15 02:56:55;;;;;;;;;;;;;;;18.00;58.59;100789.89;1701655;82;27472;-59
2022/07/15 02:59:22;;;;;;;;;;;;;;;18.03;58.64;100781.86;1679657;83;25459;-59
2022/07/15 03:01:50;;;;;;;;;;;;;;;18.06;58.94;100793.25;1679653;83;25893;-59
2022/07/15 03:04:17;;;;;;;;;;;;;;;18.10;59.00;100795.92;1685872;83;26072;-59
2022/07/15 03:06:45;;;;;;;;;;;;;;;18.14;59.25;100796.39;1695044;82;25703;-59
2022/07/15 03:09:13;;;;;;;;;;;;;;;18.19;59.23;100796.70;1692984;82;27453;-59
2022/07/15 03:11:39;;;;;;;;;;;;;;;18.23;59.17;100799.89;1692067;82;25862;-59
2022/07/15 03:14:06;;;;;;;;;;;;;;;18.23;59.39;100792.55;1685648;83;25735;-59
2022/07/15 03:16:33;;;;;;;;;;;;;;;18.29;59.34;100799.97;1695972;82;26303;-59
2022/07/15 03:19:01;;;;;;;;;;;;;;;18.35;59.36;100790.73;1692860;82;25898;-59
2022/07/15 03:21:27;;;;;;;;;;;;;;;18.39;59.12;100800.20;1690138;83;27556;-60
2022/07/15 03:23:54;;;;;;;;;;;;;;;18.43;59.30;100800.17;1703300;83;25779;-59
2022/07/15 03:30:22;;;;;;;;;;;;;;;18.54;59.12;100798.35;1675656;83;25959;-59
2022/07/15 03:32:49;;;;;;;;;;;;;;;18.60;59.08;100785.86;1679483;84;25941;-58
2022/07/15 03:35:17;;;;;;;;;;;;;;;18.66;59.07;100783.73;1681774;83;27560;-58
2022/07/15 03:37:44;;;;;;;;;;;;;;;18.72;59.05;100784.86;1687249;84;25923;-58
2022/07/15 03:40:12;;;;;;;;;;;;;;;18.75;58.78;100779.87;1688262;84;25845;-58
2022/07/15 03:42:38;;;;;;;;;;;;;;;18.76;58.79;100777.97;1681514;83;26722;-59
2022/07/15 03:45:06;;;;;;;;;;;;;;;18.78;58.65;100782.20;1685919;83;25432;-59
2022/07/15 03:47:33;;;;;;;;;;;;;;;18.82;58.82;100783.19;1694990;82;27098;-59
2022/07/15 03:50:01;;;;;;;;;;;;;;;18.88;58.75;100775.09;1706480;83;25913;-59
2022/07/15 03:52:27;;;;;;;;;;;;;;;18.95;58.66;100778.45;1701258;82;26425;-58
2022/07/15 03:54:54;;;;;;;;;;;;;;;19.03;58.50;100779.69;1701427;83;26098;-58
2022/07/15 03:57:24;;;;;;;;;;;;;;;19.08;58.27;100780.81;1685828;82;25870;-58
2022/07/15 03:59:49;;;;;;;;;;;;;;;19.08;58.38;100772.63;1679930;83;27452;-59
2022/07/15 04:02:17;;;;;;;;;;;;;;;19.07;58.15;100774.20;1683049;83;25523;-59
2022/07/15 04:04:45;;;;;;;;;;;;;;;19.08;58.29;100772.63;1667451;83;25807;-59
2022/07/15 04:07:12;;;;;;;;;;;;;;;19.11;58.20;100770.56;1647098;85;26108;-59
2022/07/15 04:09:38;;;;;;;;;;;;;;;19.17;58.34;100773.88;1618457;86;25523;-58
2022/07/15 04:12:07;;;;;;;;;;;;;;;19.21;58.34;100771.10;1612994;86;27605;-60
2022/07/15 04:14:35;;;;;;;;;;;;;;;19.26;58.38;100767.26;1616204;86;25866;-58
2022/07/15 04:17:02;;;;;;;;;;;;;;;19.33;58.19;100768.16;1606752;86;25782;-58
2022/07/15 04:19:31;;;;;;;;;;;;;;;19.39;58.11;100764.68;1605035;87;26108;-58
2022/07/15 04:22:00;;;;;;;;;;;;;;;19.46;58.14;100763.36;1635505;85;25849;-58
2022/07/15 04:24:28;;;;;;;;;;;;;;;19.51;57.94;100760.05;1622286;86;28262;-59
2022/07/15 04:26:54;;;;;;;;;;;;;;;19.57;57.78;100755.19;1619203;86;25785;-59
2022/07/15 04:29:20;;;;;;;;;;;;;;;19.63;57.48;100755.76;1623975;86;25851;-60
2022/07/15 04:31:47;;;;;;;;;;;;;;;19.72;57.77;100760.57;1633708;86;26319;-60
2022/07/15 04:34:16;;;;;;;;;;;;;;;19.78;57.70;100754.31;1607533;87;25736;-60
2022/07/15 04:36:44;;;;;;;;;;;;;;;19.86;57.77;100756.92;1605800;87;28286;-60
2022/07/15 04:39:11;;;;;;;;;;;;;;;19.93;57.59;100756.13;1596489;88;25848;-59
2022/07/15 04:41:37;;;;;;;;;;;;;;;19.97;57.31;100760.16;1617109;86;25719;-60
2022/07/15 04:44:04;;;;;;;;;;;;;;;20.05;57.16;100765.97;1624596;86;26120;-60
2022/07/15 04:46:32;;;;;;;;;;;;;;;20.11;57.22;100758.37;1624366;85;25878;-60
2022/07/15 04:51:49;;;;;;;;;;;;;;;20.25;56.81;100756.56;1646646;86;25811;-60
2022/07/15 04:54:16;;;;;;;;;;;;;;;20.35;56.54;100765.75;1649466;85;25826;-61
2022/07/15 04:56:44;;;;;;;;;;;;;;;20.41;56.65;100766.30;1643179;85;26126;-60
2022/07/15 04:59:12;;;;;;;;;;;;;;;20.48;56.24;100767.21;1627449;86;25718;-60
2022/07/15 05:01:39;;;;;;;;;;;;;;;20.57;56.27;100770.60;1622719;86;28608;-60
2022/07/15 05:04:05;;;;;;;;;;;;;;;20.63;56.27;100765.68;1615734;87;26629;-60
2022/07/15 05:06:33;;;;;;;;;;;;;;;20.70;56.09;100762.98;1618711;86;25458;-60
2022/07/15 05:09:00;;;;;;;;;;;;;;;20.78;55.91;100762.33;1607092;87;27344;-60
2022/07/15 05:11:28;;;;;;;;;;;;;;;20.84;55.77;100756.58;1608517;86;25836;-60
2022/07/15 05:13:55;;;;;;;;;;;;;;;20.91;55.35;100754.70;1615985;87;28297;-60
2022/07/15 05:16:22;;;;;;;;;;;;;;;21.00;55.17;100757.25;1615316;87;25684;-61
2022/07/15 05:18:49;;;;;;;;;;;;;;;21.07;54.69;100752.64;1616329;87;25827;-59
2022/07/15 05:21:18;;;;;;;;;;;;;;;21.16;54.43;100760.97;1616865;86;26114;-59
2022/07/15 05:23:45;;;;;;;;;;;;;;;21.25;54.16;100753.40;1612889;86;25517;-60
2022/07/15 05:26:12;;;;;;;;;;;;;;;21.32;53.96;100745.20;1604750;87;27661;-60
2022/07/15 05:28:41;;;;;;;;;;;;;;;21.40;53.81;100751.84;1604614;87;25870;-61
2022/07/15 05:31:07;;;;;;;;;;;;;;;21.49;53.22;100745.66;1640907;86;25518;-60
2022/07/15 05:33:34;;;;;;;;;;;;;;;21.58;52.94;100740.33;1625820;86;26093;-60
2022/07/15 05:36:04;;;;;;;;;;;;;;;21.69;52.63;100739.70;1629015;84;25514;-59
2022/07/15 05:38:31;;;;;;;;;;;;;;;21.76;52.54;100738.31;1623041;86;27704;-60
2022/07/15 05:40:59;;;;;;;;;;;;;;;21.84;52.42;100733.98;1620444;86;25958;-59
2022/07/15 05:43:26;;;;;;;;;;;;;;;21.95;51.96;100733.03;1626719;86;25637;-60
2022/07/15 05:45:53;;;;;;;;;;;;;;;22.04;51.72;100728.51;1631907;85;26033;-59
2022/07/15 05:48:20;;;;;;;;;;;;;;;22.14;51.46;100730.80;1644595;85;25995;-59
2022/07/15 05:50:49;;;;;;;;;;;;;;;22.25;51.16;100729.28;1641248;86;27509;-60
2022/07/15 05:53:16;;;;;;;;;;;;;;;22.35;50.83;100732.42;1639752;86;25859;-58
2022/07/15 05:55:43;;;;;;;;;;;;;;;22.47;50.84;100728.50;1644052;85;25499;-59
2022/07/15 05:58:11;;;;;;;;;;;;;;;22.58;50.36;100730.27;1634481;86;26947;-59
2022/07/15 06:00:39;;;;;;;;;;;;;;;22.70;50.02;100725.80;1616606;87;25873;-59
2022/07/15 06:03:05;;;;;;;;;;;;;;;22.80;49.90;100727.54;1595753;88;28238;-59
2022/07/15 06:05:34;;;;;;;;;;;;;;;22.91;49.72;100721.88;1621265;87;25487;-59
2022/07/15 06:08:02;;;;;;;;;;;;;;;23.08;49.65;100722.22;1623856;87;25859;-59
2022/07/15 06:10:30;;;;;;;;;;;;;;;23.19;49.14;100718.47;1612275;87;26208;-59
2022/07/15 06:12:59;;;;;;;;;;;;;;;23.31;49.04;100718.62;1615754;87;25756;-61
2022/07/15 06:15:29;;;;;;;;;;;;;;;23.40;48.82;100713.99;1623630;87;27465;-59
2022/07/15 06:17:56;;;;;;;;;;;;;;;23.53;48.65;100724.02;1624324;87;26142;-59
2022/07/15 06:20:25;;;;;;;;;;;;;;;23.65;48.25;100716.44;1626755;86;25871;-60
2022/07/15 06:22:51;;;;;;;;;;;;;;;23.78;48.06;100718.22;1618605;87;26894;-59
2022/07/15 06:25:22;;;;;;;;;;;;;;;23.91;47.85;100716.70;1620512;85;25791;-60
2022/07/15 06:27:53;;;;;;;;;;;;;;;24.06;47.56;100710.89;1630906;86;27750;-61
2022/07/15 06:30:21;;;;;;;;;;;;;;;24.23;46.91;100712.52;1628261;86;25937;-60
2022/07/15 06:32:47;;;;;;;;;;;;;;;24.43;46.88;100704.57;1627646;86;25508;-60
2022/07/15 06:35:14;;;;;;;;;;;;;;;24.61;45.92;100711.95;1617680;86;26105;-60
2022/07/15 06:37:41;;;;;;;;;;;;;;;24.75;44.67;100704.39;1618641;86;25493;-59
2022/07/15 06:40:10;;;;;;;;;;;;;;;24.86;44.81;100702.23;1624353;86;27509;-60
2022/07/15 06:42:38;;;;;;;;;;;;;;;24.99;44.51;100704.78;1630027;86;25930;-60
2022/07/15 06:45:08;;;;;;;;;;;;;;;25.15;43.97;100708.78;1619444;86;26027;-60
2022/07/15 06:47:34;;;;;;;;;;;;;;;25.31;43.07;100710.55;1636669;86;26096;-60
2022/07/15 06:50:01;;;;;;;;;;;;;;;25.51;40.85;100712.18;1648494;85;27231;-60
2022/07/15 06:52:28;;;;;;;;;;;;;;;25.76;39.14;100713.34;1647719;86;27455;-59
2022/07/15 06:54:55;;;;;;;;;;;;;;;25.94;39.44;100717.36;1647926;85;25825;-60
2022/07/15 06:57:23;;;;;;;;;;;;;;;26.10;38.50;100719.11;1639166;86;25895;-61
2022/07/15 06:59:52;;;;;;;;;;;;;;;26.22;38.66;100710.27;1623188;86;26205;-60
2022/07/15 07:02:18;;;;;;;;;;;;;;;26.35;38.44;100716.08;1618175;86;25822;-60
2022/07/15 07:04:45;;;;;;;;;;;;;;;26.46;38.88;100712.13;1687771;83;27416;-60
2022/07/15 07:07:13;;;;;;;;;;;;;;;26.58;38.10;100710.75;1708811;82;25897;-61
2022/07/15 07:09:40;;;;;;;;;;;;;;;26.65;38.51;100716.95;1685513;82;26397;-60
2022/07/15 07:12:07;;;;;;;;;;;;;;;26.69;38.21;100719.50;1696079;83;26290;-60
2022/07/15 07:14:34;;;;;;;;;;;;;;;26.75;38.07;100714.93;1703876;82;25500;-59
2022/07/15 07:17:00;;;;;;;;;;;;;;;26.80;38.02;100718.66;1687784;83;28294;-59
2022/07/15 07:19:27;;;;;;;;;;;;;;;26.91;37.94;100714.17;1663679;84;25851;-60
2022/07/15 07:21:54;;;;;;;;;;;;;;;27.02;38.02;100721.56;1677063;83;25777;-60
2022/07/15 07:24:21;;;;;;;;;;;;;;;27.14;37.31;100727.58;1664792;84;26153;-60
2022/07/15 07:26:48;;;;;;;;;;;;;;;27.32;36.08;100719.06;1670404;84;26315;-59
2022/07/15 07:29:22;;;;;;;;;;;;;;;27.54;36.05;100713.37;1659975;83;27531;-59
2022/07/15 07:31:43;;;;;;;;;;;;;;;27.71;35.55;100707.28;1679407;83;26414;-60
2022/07/15 07:34:10;;;;;;;;;;;;;;;27.87;35.23;100704.75;1683837;84;25464;-60
2022/07/15 07:36:36;;;;;;;;;;;;;;;28.13;34.45;100701.84;1677359;83;26106;-60
2022/07/15 07:39:03;;;;;;;;;;;;;;;28.32;34.05;100694.63;1666574;84;25801;-60
2022/07/15 07:41:29;;;;;;;;;;;;;;;28.48;34.71;100697.01;1665711;84;28228;-60
2022/07/15 07:43:56;;;;;;;;;;;;;;;28.61;33.70;100697.16;1662503;83;25940;-60
2022/07/15 07:46:23;;;;;;;;;;;;;;;28.73;33.59;100688.20;1664397;84;26070;-60
2022/07/15 07:48:49;;;;;;;;;;;;;;;28.83;33.80;100679.16;1666469;84;26148;-60
2022/07/15 07:51:17;;;;;;;;;;;;;;;28.93;33.72;100680.66;1664562;84;25807;-60
2022/07/15 07:53:43;;;;;;;;;;;;;;;29.03;33.04;100675.78;1669603;84;27476;-60
2022/07/15 07:56:10;;;;;;;;;;;;;;;29.08;33.05;100671.66;1667600;83;25767;-60
2022/07/15 07:58:39;;;;;;;;;;;;;;;29.14;32.88;100671.16;1679520;84;25790;-60
2022/07/15 08:01:05;;;;;;;;;;;;;;;29.19;32.42;100671.19;1661659;84;26118;-60
2022/07/15 08:03:32;;;;;;;;;;;;;;;29.24;33.16;100671.25;1674879;83;25912;-60
2022/07/15 08:05:59;;;;;;;;;;;;;;;29.33;32.13;100675.77;1684207;84;27626;-60
2022/07/15 08:08:27;;;;;;;;;;;;;;;29.41;31.79;100680.00;1673158;84;27219;-60
2022/07/15 08:10:58;;;;;;;;;;;;;;;29.49;31.77;100669.81;1666703;84;25882;-59
2022/07/15 08:13:26;;;;;;;;;;;;;;;29.55;32.09;100665.14;1668300;84;26175;-60
2022/07/15 08:15:56;;;;;;;;;;;;;;;29.63;31.40;100672.39;1658590;84;25869;-60
2022/07/15 08:18:23;;;;;;;;;;;;;;;29.73;30.29;100669.41;1662228;82;27636;-60
2022/07/15 08:20:51;;;;;;;;;;;;;;;29.83;30.68;100662.01;1667882;84;25717;-60
2022/07/15 08:23:21;;;;;;;;;;;;;;;29.90;30.40;100663.13;1663510;83;25448;-61
2022/07/15 08:25:50;;;;;;;;;;;;;;;30.03;30.28;100659.63;1677488;83;26791;-60
2022/07/15 08:28:17;;;;;;;;;;;;;;;30.14;30.18;100660.80;1636712;85;26266;-61
2022/07/15 08:30:45;;;;;;;;;;;;;;;30.24;29.86;100667.48;1674366;84;27472;-60
2022/07/15 08:33:12;;;;;;;;;;;;;;;30.38;29.14;100674.77;1657914;83;25929;-61
2022/07/15 08:35:40;;;;;;;;;;;;;;;30.48;29.26;100667.86;1674353;83;25378;-60
2022/07/15 08:38:08;;;;;;;;;;;;;;;30.59;28.71;100665.97;1669006;83;28170;-60
2022/07/15 08:40:36;;;;;;;;;;;;;;;30.72;29.48;100660.45;1669878;83;25851;-60
2022/07/15 08:43:08;;;;;;;;;;;;;;;30.82;28.95;100654.92;1674193;83;28304;-60
2022/07/15 08:45:37;;;;;;;;;;;;;;;30.93;28.29;100662.70;1670465;83;25765;-60
2022/07/15 08:48:05;;;;;;;;;;;;;;;31.06;28.42;100658.00;1708148;82;25785;-60
2022/07/15 08:50:32;;;;;;;;;;;;;;;31.15;28.07;100653.31;1676747;83;26864;-60
2022/07/15 08:52:59;;;;;;;;;;;;;;;31.22;28.30;100651.94;1677837;84;25445;-59
2022/07/15 08:55:25;;;;;;;;;;;;;;;31.30;28.33;100652.48;1678671;84;28361;-60
2022/07/15 08:57:53;;;;;;;;;;;;;;;31.41;28.17;100656.08;1683547;82;25690;-61
2022/07/15 09:00:27;;;;;;;;;;;;;;;31.56;27.98;100658.01;1690819;81;25930;-60
2022/07/15 09:02:50;;;;;;;;;;;;;;;31.72;27.80;100651.90;1716463;82;26959;-61
2022/07/15 09:05:29;;;;;;;;;;;;;;;31.88;26.83;100650.73;1710336;82;25844;-60
2022/07/15 09:08:08;;;;;;;;;;;;;;;31.97;26.44;100645.41;1691441;82;27486;-60
2022/07/15 09:10:57;;;;;;;;;;;;;;;32.07;26.57;100645.95;1687833;83;25769;-60
2022/07/15 09:13:40;;;;;;;;;;;;;;;32.23;26.04;100649.54;1682477;84;25743;-62
2022/07/15 09:16:09;;;;;;;;;;;;;;;32.39;25.86;100648.34;1686251;83;27007;-60
2022/07/15 09:18:38;;;;;;;;;;;;;;;32.61;26.22;100641.52;1688584;84;25660;-60
2022/07/15 09:21:28;;;;;;;;;;;;;;;32.82;25.73;100646.98;1685587;83;27872;-60
2022/07/15 09:23:55;;;;;;;;;;;;;;;33.10;24.80;100649.55;1668720;84;25923;-59
2022/07/15 09:26:32;;;;;;;;;;;;;;;33.39;24.76;100635.68;1684195;84;25573;-62
2022/07/15 09:28:59;;;;;;;;;;;;;;;33.74;23.38;100647.31;1674469;83;25865;-60
2022/07/15 09:34:17;;;;;;;;;;;;;;;33.93;23.00;100631.50;1668888;83;27496;-59
2022/07/15 09:36:50;;;;;;;;;;;;;;;34.40;23.38;100626.72;1678062;84;25922;-60
2022/07/15 09:39:15;;;;;;;;;;;;;;;34.89;22.53;100621.78;1665197;83;25877;-60
2022/07/15 09:41:44;;;;;;;;;;;;;;;35.38;21.61;100616.22;1668371;83;26515;-61
2022/07/15 09:44:16;;;;;;;;;;;;;;;35.74;21.39;100617.52;1669332;83;25953;-61
2022/07/15 09:46:54;;;;;;;;;;;;;;;36.07;21.53;100612.40;1669123;83;27453;-60
2022/07/15 09:49:32;;;;;;;;;;;;;;;36.39;20.09;100614.20;1674804;83;26226;-61
2022/07/15 09:52:11;;;;;;;;;;;;;;;36.42;19.81;100619.77;1662447;84;25850;-60
2022/07/15 09:54:44;;;;;;;;;;;;;;;36.29;19.69;100612.48;1657895;84;26186;-62
2022/07/15 09:57:17;;;;;;;;;;;;;;;36.16;20.27;100605.77;1650382;85;25853;-61
2022/07/15 09:59:44;;;;;;;;;;;;;;;36.42;19.70;100609.41;1674517;81;27525;-61
2022/07/15 10:02:12;;;;;;;;;;;;;;;36.68;19.88;100608.80;1671684;83;25721;-60
2022/07/15 10:04:39;;;;;;;;;;;;;;;37.07;19.10;100603.66;1688897;82;25893;-61
2022/07/15 10:07:07;;;;;;;;;;;;;;;37.37;18.90;100587.98;1693294;83;26962;-61
2022/07/15 10:09:35;;;;;;;;;;;;;;;37.40;17.77;100589.34;1710726;82;25929;-61
2022/07/15 10:12:13;;;;;;;;;;;;;;;37.54;18.71;100602.70;1661504;83;28408;-61
2022/07/15 10:15:04;;;;;;;;;;;;;;;37.60;17.89;100592.17;1673125;84;25926;-61
2022/07/15 10:18:00;;;;;;;;;;;;;;;37.71;17.36;100594.09;1672131;84;25911;-61
2022/07/15 10:20:30;;;;;;;;;;;;;;;38.26;17.47;100582.10;1662110;85;26146;-62
2022/07/15 10:23:15;;;;;;;;;;;;;;;38.81;17.30;100578.67;1674707;84;25839;-61
2022/07/15 10:26:04;;;;;;;;;;;;;;;39.38;16.42;100575.89;1662747;84;27501;-62
2022/07/15 10:28:52;;;;;;;;;;;;;;;40.01;16.50;100573.84;1637382;86;26234;-61
2022/07/15 10:31:28;;;;;;;;;;;;;;;40.32;15.97;100566.99;1620650;87;25952;-61
2022/07/15 10:34:09;;;;;;;;;;;;;;;40.53;15.40;100569.79;1616451;86;26155;-61
2022/07/15 10:36:54;;;;;;;;;;;;;;;40.52;15.49;100567.56;1621942;87;25804;-61
2022/07/15 10:39:22;;;;;;;;;;;;;;;41.08;15.73;100564.98;1641054;86;28546;-61
2022/07/15 10:41:54;;;;;;;;;;;;;;;41.66;15.00;100561.88;1620963;87;25863;-61
2022/07/15 10:44:21;;;;;;;;;;;;;;;41.74;13.91;100570.81;1632018;85;25794;-61
2022/07/15 10:47:08;;;;;;;;;;;;;;;41.58;13.60;100570.13;1650154;85;26858;-61
2022/07/15 10:49:35;;;;;;;;;;;;;;;41.51;13.63;100566.23;1654227;85;25768;-61
2022/07/15 10:52:13;;;;;;;;;;;;;;;41.75;13.87;100554.10;1650867;85;27546;-61
2022/07/15 10:54:46;;;;;;;;;;;;;;;42.11;13.99;100556.66;1663774;84;25852;-61
2022/07/15 10:57:15;;;;;;;;;;;;;;;42.08;13.04;100564.42;1663261;85;26504;-61
2022/07/15 10:59:54;;;;;;;;;;;;;;;42.33;14.30;100556.73;1642968;86;27001;-61
2022/07/15 11:02:22;;;;;;;;;;;;;;;42.68;13.46;100551.86;1639153;86;25744;-61
2022/07/15 11:04:51;;;;;;;;;;;;;;;42.83;13.04;100552.27;1630176;86;28376;-62
2022/07/15 11:07:20;;;;;;;;;;;;;;;42.64;12.62;100559.41;1628171;85;25914;-61
2022/07/15 11:10:05;;;;;;;;;;;;;;;42.69;12.63;100556.34;1618310;86;25723;-61
2022/07/15 11:12:36;;;;;;;;;;;;;;;42.69;13.23;100546.44;1638019;86;26201;-62
2022/07/15 11:15:06;;;;;;;;;;;;;;;43.14;13.45;100537.33;1628141;86;25787;-61
2022/07/15 11:17:36;;;;;;;;;;;;;;;43.77;12.93;100537.08;1634496;85;27505;-61
2022/07/15 11:20:10;;;;;;;;;;;;;;;44.33;13.02;100551.27;1625859;85;26305;-62
2022/07/15 11:22:43;;;;;;;;;;;;;;;44.74;12.41;100546.02;1648906;86;25742;-61
2022/07/15 11:25:33;;;;;;;;;;;;;;;45.07;12.44;100542.37;1659235;85;26244;-61
2022/07/15 11:28:11;;;;;;;;;;;;;;;45.34;12.48;100531.90;1642509;86;25709;-61
2022/07/15 11:30:56;;;;;;;;;;;;;;;45.94;11.89;100528.96;1642021;86;28397;-61
2022/07/15 11:33:29;;;;;;;;;;;;;;;45.56;11.88;100535.89;1633130;86;25837;-61
2022/07/15 11:35:58;;;;;;;;;;;;;;;44.79;12.04;100527.90;1630099;86;25817;-60
2022/07/15 11:38:28;;;;;;;;;;;;;;;44.73;12.56;100525.13;1632820;86;26167;-61
2022/07/15 11:46:31;;;;;;;;;;;;;;;44.95;12.17;100521.50;1634657;85;43193;-62
2022/07/15 11:48:58;;;;;;;;;;;;;;;45.61;11.85;100517.73;1699470;82;25793;-61
2022/07/15 11:51:27;;;;;;;;;;;;;;;46.14;11.96;100521.70;1684482;82;26886;-62
2022/07/15 11:53:55;;;;;;;;;;;;;;;46.06;11.47;100516.55;1683946;82;26264;-62
2022/07/15 11:56:22;;;;;;;;;;;;;;;46.43;10.74;100531.45;1676405;82;27525;-62
2022/07/15 11:58:54;;;;;;;;;;;;;;;46.39;10.58;100523.47;1680706;82;25889;-62
2022/07/15 12:01:23;;;;;;;;;;;;;;;46.02;11.18;100518.52;1671139;84;25798;-61
2022/07/15 12:03:52;;;;;;;;;;;;;;;46.52;11.83;100524.02;1666759;84;26879;-62
2022/07/15 12:06:22;;;;;;;;;;;;;;;45.98;12.38;100525.58;1695440;83;25904;-62
2022/07/15 12:08:56;;;;;;;;;;;;;;;45.88;12.77;100527.05;1695125;83;27627;-61
2022/07/15 12:11:28;;;;;;;;;;;;;;;45.56;12.76;100522.30;1698519;82;26648;-62
2022/07/15 12:13:58;;;;;;;;;;;;;;;44.11;13.79;100523.08;1676872;83;25838;-61
2022/07/15 12:16:29;;;;;;;;;;;;;;;42.67;14.74;100524.77;1688902;83;26316;-61
2022/07/15 12:18:57;;;;;;;;;;;;;;;41.72;15.48;100518.93;1693285;83;25465;-61
2022/07/15 12:21:25;;;;;;;;;;;;;;;40.52;16.42;100530.92;1689318;83;27479;-61
2022/07/15 12:24:11;;;;;;;;;;;;;;;39.82;17.13;100534.30;1694031;82;25827;-61
2022/07/15 12:26:44;;;;;;;;;;;;;;;39.20;17.82;100531.48;1699459;83;25799;-61
2022/07/15 12:29:11;;;;;;;;;;;;;;;38.43;18.42;100536.34;1683032;82;26082;-61
2022/07/15 12:31:40;;;;;;;;;;;;;;;37.82;18.94;100537.08;1666518;84;25923;-61
2022/07/15 12:34:06;;;;;;;;;;;;;;;37.41;19.50;100532.09;1684421;84;27470;-62
2022/07/15 12:36:35;;;;;;;;;;;;;;;37.00;20.15;100538.22;1678234;84;25981;-61
2022/07/15 12:39:16;;;;;;;;;;;;;;;36.57;20.65;100544.35;1670969;84;25903;-61
2022/07/15 12:41:44;;;;;;;;;;;;;;;36.25;21.24;100546.22;1682604;84;26234;-60
2022/07/15 12:44:11;;;;;;;;;;;;;;;35.85;21.94;100548.19;1676549;84;25819;-61
2022/07/15 12:46:55;;;;;;;;;;;;;;;35.39;22.66;100555.52;1705192;82;27465;-61
2022/07/15 12:49:51;;;;;;;;;;;;;;;34.98;22.98;100563.28;1718551;82;25508;-61
2022/07/15 12:52:27;;;;;;;;;;;;;;;34.46;24.12;100568.29;1696462;82;25904;-61
2022/07/15 12:54:55;;;;;;;;;;;;;;;34.02;25.24;100573.88;1705860;83;26154;-61
2022/07/15 12:57:25;;;;;;;;;;;;;;;33.78;25.67;100580.88;1715674;82;26492;-61
2022/07/15 13:00:00;;;;;;;;;;;;;;;33.53;27.70;100577.81;1672506;84;27699;-61
2022/07/15 13:02:27;;;;;;;;;;;;;;;33.32;28.29;100586.39;1672805;83;25889;-60